Time;durP1;ratioP1;P1;durP2;ratioP2;P2;SDS_P1;SDS_P2;PMS_P1;PMS_P2;Temp;Humidity;BMP_temperature;BMP_pressure;BME280_temperature;BME280_humidity;BME280_pressure;Samples;Min_cycle;Max_cycle;Signal;HPM_P1;HPM_P2
2023/03/23 07:47:58;;;;;;;5.93;2.00;;;14.70;1.00;;;;;;4853881;29;20500;-85
2023/03/23 08:00:20;;;;;;;1.97;1.63;;;15.20;1.00;;;;;;4894634;29;20459;-83
2023/03/23 08:06:35;;;;;;;4.87;2.00;;;15.30;1.00;;;;;;4895213;29;20521;-85
2023/03/23 08:13:21;;;;;;;3.67;1.97;;;15.40;1.00;;;;;;4894378;29;20479;-85
2023/03/23 08:16:39;;;;;;;;;;;;;;;;;;;;;
2023/03/23 08:32:52;;;;;;;5.07;1.83;;;16.50;99.90;;;;;;4895984;29;20850;-84
2023/03/23 08:36:18;;;;;;;5.87;2.20;;;16.70;99.90;;;;;;4902573;29;20780;-84
2023/03/23 08:42:33;;;;;;;;;;;;;;;;;;;;;
2023/03/23 08:48:34;;;;;;;4.60;1.53;;;19.20;99.90;;;;;;4870900;29;20443;-86
2023/03/23 08:55:15;;;;;;;5.23;2.07;;;19.40;99.90;;;;;;4893778;29;20472;-84
2023/03/23 08:58:40;;;;;;;;;;;;;;;;;;;;;
2023/03/23 09:05:47;;;;;;;;;;;;;;;;;;;;;
2023/03/23 09:14:48;;;;;;;4.00;1.50;;;17.50;99.90;;;;;;4905841;29;20472;-83
2023/03/23 09:27:49;;;;;;;;;;;;;;;;;;;;;
2023/03/23 09:33:56;;;;;;;;;;;;;;;;;;;;;
2023/03/23 09:37:16;;;;;;;;;;;;;;;;;;;;;
2023/03/23 09:39:59;;;;;;;;;;;;;;;;;;;;;
2023/03/23 09:43:05;;;;;;;5.10;1.93;;;15.80;99.90;;;;;;4900432;29;20490;-84
2023/03/23 09:45:33;;;;;;;6.33;1.70;;;15.90;99.90;;;;;;4889254;29;20451;-81
2023/03/23 10:09:05;;;;;;;3.80;1.10;;;13.70;99.90;;;;;;4895336;29;20424;-82
2023/03/23 10:11:58;;;;;;;2.10;1.10;;;13.50;1.00;;;;;;4892265;29;20473;-86
2023/03/23 10:15:41;;;;;;;5.40;1.50;;;13.40;1.00;;;;;;4878074;29;20594;-81
2023/03/23 11:30:15;;;;;;;3.43;2.77;;;14.90;99.90;;;;;;4907209;29;20422;-84
2023/03/23 11:36:37;;;;;;;;;;;;;;;;;;;;;
2023/03/23 11:43:26;;;;;;;;;;;;;;;;;;;;;
2023/03/23 11:50:01;;;;;;;2.63;2.00;;;17.00;1.00;;;;;;4884578;29;20441;-85
2023/03/23 12:12:45;;;;;;;6.87;3.00;;;16.10;1.00;;;;;;4901002;29;20467;-84
2023/03/23 12:15:28;;;;;;;;;;;;;;;;;;;;;
2023/03/23 12:18:40;;;;;;;4.57;3.43;;;15.40;99.90;;;;;;4900736;29;20475;-85
2023/03/23 12:21:27;;;;;;;6.30;3.03;;;15.40;1.00;;;;;;4891194;29;20457;-82
2023/03/23 12:24:15;;;;;;;3.20;2.70;;;17.00;99.90;;;;;;4908016;29;20439;-82
2023/03/23 12:27:03;;;;;;;2.77;1.80;;;19.00;1.00;;;;;;4886532;29;20465;-83
2023/03/23 12:29:48;;;;;;;3.90;1.97;;;19.70;1.00;;;;;;4901220;29;20436;-83
2023/03/23 12:32:54;;;;;;;4.93;2.30;;;19.90;1.00;;;;;;4895986;29;20483;-85
2023/03/23 12:35:41;;;;;;;2.60;2.03;;;19.80;1.00;;;;;;4832760;29;20483;-84
2023/03/23 12:38:42;;;;;;;3.33;1.90;;;19.40;1.00;;;;;;4833099;29;20442;-82
2023/03/23 12:41:27;;;;;;;;;;;;;;;;;;;;;
2023/03/23 12:44:10;;;;;;;3.07;2.33;;;17.90;1.00;;;;;;4904177;29;20561;-86
2023/03/23 12:46:54;;;;;;;6.50;2.60;;;17.40;1.00;;;;;;4902257;29;20479;-84
2023/03/23 12:53:33;;;;;;;;;;;;;;;;;;;;;
2023/03/23 13:03:24;;;;;;;;;;;;;;;;;;;;;
2023/03/23 13:06:14;;;;;;;5.90;4.43;;;15.90;1.00;;;;;;4875779;29;20456;-85
2023/03/23 13:09:28;;;;;;;;;;;;;;;;;;;;;
2023/03/23 13:12:39;;;;;;;4.40;4.00;;;15.50;99.90;;;;;;4907183;29;20932;-84
2023/03/23 13:15:27;;;;;;;7.33;4.47;;;15.90;99.90;;;;;;4881085;29;21037;-83
2023/03/23 13:18:23;;;;;;;6.73;3.33;;;16.60;99.90;;;;;;4902294;29;20907;-83
2023/03/23 13:21:14;;;;;;;4.70;3.43;;;17.20;1.00;;;;;;4890194;29;20430;-83
2023/03/23 13:27:53;;;;;;;;;;;;;;;;;;;;;
2023/03/23 13:31:19;;;;;;;;;;;;;;;;;;;;;
2023/03/23 13:33:51;;;;;;;3.33;1.67;;;17.30;1.00;;;;;;4898637;29;20610;-83
2023/03/23 13:36:35;;;;;;;6.23;2.07;;;17.00;1.00;;;;;;4893268;29;20465;-82
2023/03/23 13:39:14;;;;;;;;;;;;;;;;;;;;;
2023/03/23 13:42:20;;;;;;;3.40;1.67;;;16.90;1.00;;;;;;4887674;29;20537;-83
2023/03/23 13:44:52;;;;;;;2.50;1.33;;;16.70;1.00;;;;;;4866402;29;20468;-83
2023/03/23 13:47:38;;;;;;;;;;;;;;;;;;;;;
2023/03/23 13:50:24;;;;;;;5.10;2.33;;;16.70;1.00;;;;;;4886432;29;20443;-83
2023/03/23 13:53:10;;;;;;;;;;;;;;;;;;;;;
2023/03/23 13:59:12;;;;;;;3.90;1.40;;;17.20;1.00;;;;;;4890599;29;20451;-85
2023/03/23 14:05:42;;;;;;;3.13;1.50;;;17.10;1.00;;;;;;4903384;29;20451;-83
2023/03/23 14:09:02;;;;;;;4.67;2.10;;;17.20;1.00;;;;;;4882494;29;20457;-85
2023/03/23 14:15:06;;;;;;;3.17;2.10;;;17.50;1.00;;;;;;4899639;29;20488;-81
2023/03/23 14:17:52;;;;;;;5.10;2.20;;;17.50;1.00;;;;;;4901243;29;20445;-84
2023/03/23 14:20:56;;;;;;;3.07;2.00;;;17.40;1.00;;;;;;4887391;29;20484;-85
2023/03/23 14:23:41;;;;;;;4.33;2.57;;;17.20;1.00;;;;;;4895179;29;20469;-84
2023/03/23 14:26:26;;;;;;;3.83;2.30;;;17.10;1.00;;;;;;4897607;29;20448;-85
2023/03/23 14:39:30;;;;;;;;;;;;;;;;;;;;;
2023/03/23 14:42:06;;;;;;;5.53;2.50;;;15.80;99.90;;;;;;4906004;29;20526;-85
2023/03/23 14:45:10;;;;;;;3.23;2.73;;;15.70;99.90;;;;;;4893553;29;20451;-84
2023/03/23 14:48:32;;;;;;;;;;;;;;;;;;;;;
2023/03/23 14:51:51;;;;;;;;;;;;;;;;;;;;;
2023/03/23 15:15:08;;;;;;;10.50;3.07;;;18.90;1.00;;;;;;4883616;29;20489;-86
2023/03/23 15:25:38;;;;;;;;;;;;;;;;;;;;;
2023/03/23 15:29:04;;;;;;;;;;;;;;;;;;;;;
2023/03/23 15:31:55;;;;;;;5.33;3.03;;;18.20;99.90;;;;;;4908460;29;20442;-83
2023/03/23 15:34:58;;;;;;;4.53;2.57;;;18.00;99.90;;;;;;4889392;29;20467;-84
2023/03/23 15:44:44;;;;;;;;;;;;;;;;;;;;;
2023/03/23 15:48:07;;;;;;;8.63;2.13;;;17.90;99.90;;;;;;4902528;29;20453;-84
2023/03/23 16:04:09;;;;;;;5.27;1.97;;;17.90;99.90;;;;;;4900802;29;20498;-83
2023/03/23 16:10:08;;;;;;;6.80;2.33;;;17.70;99.90;;;;;;4888060;29;21008;-85
2023/03/23 16:13:14;;;;;;;3.60;2.00;;;17.70;99.90;;;;;;4902361;29;21123;-85
2023/03/23 16:16:10;;;;;;;;;;;;;;;;;;;;;
2023/03/23 16:18:38;;;;;;;3.53;1.90;;;17.50;99.90;;;;;;4901047;29;20478;-83
2023/03/23 16:21:14;;;;;;;;;;;;;;;;;;;;;
2023/03/23 16:24:07;;;;;;;;;;;;;;;;;;;;;
2023/03/23 16:27:13;;;;;;;4.20;2.33;;;17.30;99.90;;;;;;4904166;29;20460;-84
2023/03/23 16:30:46;;;;;;;8.10;3.00;;;17.20;99.90;;;;;;4885134;29;20476;-84
2023/03/23 16:33:15;;;;;;;8.13;2.13;;;17.10;99.90;;;;;;4886892;29;20499;-84
2023/03/23 16:35:57;;;;;;;5.47;2.27;;;17.00;99.90;;;;;;4895952;29;20475;-85
2023/03/23 16:39:26;;;;;;;5.67;2.33;;;16.80;99.90;;;;;;4904194;29;20449;-83
2023/03/23 16:45:57;;;;;;;5.43;2.10;;;16.70;99.90;;;;;;4892356;29;20459;-83
2023/03/23 16:48:28;;;;;;;9.70;2.80;;;16.70;99.90;;;;;;4890574;29;20550;-84
2023/03/23 16:54:34;;;;;;;5.23;1.97;;;16.60;99.90;;;;;;4901323;29;20465;-83
2023/03/23 16:57:50;;;;;;;;;;;;;;;;;;;;;
2023/03/23 17:00:27;;;;;;;6.93;2.43;;;16.40;99.90;;;;;;4893859;29;20456;-82
2023/03/23 17:02:56;;;;;;;5.40;1.90;;;16.40;99.90;;;;;;4886040;29;20510;-85
2023/03/23 17:05:25;;;;;;;8.13;2.97;;;16.30;99.90;;;;;;4877807;29;20436;-82
2023/03/23 17:07:51;;;;;;;4.93;2.03;;;16.20;99.90;;;;;;4904305;29;20461;-83
2023/03/23 17:10:20;;;;;;;3.27;1.90;;;16.20;99.90;;;;;;4891324;29;20433;-82
2023/03/23 17:12:56;;;;;;;6.03;2.37;;;16.10;99.90;;;;;;4906367;29;20489;-85
2023/03/23 17:15:24;;;;;;;5.27;1.90;;;16.10;99.90;;;;;;4893781;29;20422;-83
2023/03/23 17:17:52;;;;;;;6.03;2.40;;;16.00;99.90;;;;;;4892392;29;20440;-84
2023/03/23 17:20:18;;;;;;;4.17;2.10;;;15.90;99.90;;;;;;4887108;29;20486;-86
2023/03/23 17:22:44;;;;;;;12.97;2.30;;;15.90;99.90;;;;;;4907405;29;20486;-83
2023/03/23 17:25:17;;;;;;;5.50;2.40;;;15.80;99.90;;;;;;4907957;29;20204;-83
2023/03/23 17:27:43;;;;;;;5.33;2.77;;;15.80;99.90;;;;;;4907518;29;20202;-84
2023/03/23 17:30:50;;;;;;;7.87;2.40;;;15.70;99.90;;;;;;4875997;29;20452;-83
2023/03/23 17:33:35;;;;;;;7.77;2.13;;;15.70;99.90;;;;;;4907467;29;20310;-84
2023/03/23 17:36:03;;;;;;;5.27;2.27;;;15.60;99.90;;;;;;4901544;29;20447;-84
2023/03/23 17:38:29;;;;;;;5.33;3.30;;;15.60;99.90;;;;;;4903549;29;20458;-85
2023/03/23 17:41:22;;;;;;;;;;;;;;;;;;;;;
2023/03/23 17:43:48;;;;;;;8.33;3.20;;;15.40;99.90;;;;;;4905982;29;20211;-83
2023/03/23 17:46:21;;;;;;;8.20;2.47;;;15.30;99.90;;;;;;4901302;29;20458;-84
2023/03/23 17:48:46;;;;;;;7.57;2.70;;;15.20;99.90;;;;;;4886166;29;20205;-82
2023/03/23 17:51:12;;;;;;;3.40;2.23;;;15.10;99.90;;;;;;4894226;29;20443;-83
2023/03/23 17:53:37;;;;;;;8.83;2.50;;;15.00;99.90;;;;;;4902682;29;20222;-82
2023/03/23 17:56:06;;;;;;;6.33;2.70;;;14.90;99.90;;;;;;4905347;29;20202;-81
2023/03/23 17:58:32;;;;;;;4.57;2.40;;;14.80;99.90;;;;;;4898654;29;20193;-83
2023/03/23 18:00:57;;;;;;;7.77;2.40;;;14.70;99.90;;;;;;4881557;29;20438;-83
2023/03/23 18:03:24;;;;;;;5.93;2.50;;;14.70;99.90;;;;;;4901610;29;20215;-83
2023/03/23 18:05:51;;;;;;;7.57;2.43;;;14.60;1.00;;;;;;4902487;29;20677;-82
2023/03/23 18:08:17;;;;;;;10.57;2.70;;;14.50;1.00;;;;;;4885305;29;20446;-83
2023/03/23 18:10:43;;;;;;;10.10;2.50;;;14.40;1.00;;;;;;4903091;29;20723;-85
2023/03/23 18:13:09;;;;;;;4.40;2.10;;;14.40;1.00;;;;;;4881944;29;21008;-85
2023/03/23 18:15:40;;;;;;;4.77;2.60;;;14.30;1.00;;;;;;4898670;29;20441;-83
2023/03/23 18:18:06;;;;;;;5.67;2.67;;;14.30;1.00;;;;;;4899196;29;20529;-83
2023/03/23 18:20:44;;;;;;;;;;;;;;;;;;;;;
2023/03/23 18:23:18;;;;;;;5.20;2.47;;;14.20;1.00;;;;;;4901617;29;20495;-83
2023/03/23 18:25:43;;;;;;;4.30;2.43;;;14.20;1.00;;;;;;4884127;29;20872;-86
2023/03/23 18:28:09;;;;;;;6.73;2.80;;;14.20;1.00;;;;;;4901281;29;20471;-83
2023/03/23 18:30:34;;;;;;;8.77;3.70;;;14.20;1.00;;;;;;4897749;29;20195;-86
2023/03/23 18:33:02;;;;;;;4.33;3.00;;;14.20;1.00;;;;;;4894976;29;20221;-86
2023/03/23 18:36:02;;;;;;;8.80;3.70;;;14.20;1.00;;;;;;4897342;29;20207;-85
2023/03/23 18:52:32;;;;;;;5.30;2.30;;;14.00;1.00;;;;;;4888325;29;20448;-85
2023/03/23 18:55:46;;;;;;;;;;;;;;;;;;;;;
2023/03/23 19:16:19;;;;;;;6.23;2.20;;;13.80;1.00;;;;;;4895017;29;20433;-84
2023/03/23 19:36:30;;;;;;;;;;;;;;;;;;;;;
2023/03/23 19:42:43;;;;;;;5.43;2.23;;;14.00;41.80;;;;;;4840702;29;20486;-84
2023/03/23 19:45:45;;;;;;;4.97;2.70;;;14.00;41.20;;;;;;4902583;29;20824;-84
2023/03/23 19:48:31;;;;;;;3.57;2.50;;;14.00;44.80;;;;;;4884329;29;20991;-83
2023/03/23 19:54:29;;;;;;;;;;;;;;;;;;;;;
2023/03/23 20:11:24;;;;;;;3.57;2.47;;;14.10;1.00;;;;;;4843148;29;20453;-84
2023/03/23 20:13:58;;;;;;;3.00;1.83;;;14.10;1.00;;;;;;4890548;29;20486;-83
2023/03/23 20:16:30;;;;;;;4.53;2.50;;;14.10;1.00;;;;;;4905212;29;20443;-85
2023/03/23 20:19:58;;;;;;;;;;;;;;;;;;;;;
2023/03/23 21:52:44;;;;;;;;;;;;;;;;;;;;;
2023/03/23 21:56:04;;;;;;;;;;;;;;;;;;;;;
2023/03/23 22:02:10;;;;;;;4.47;1.47;;;14.00;1.00;;;;;;4905729;29;20443;-85
2023/03/23 22:08:25;;;;;;;;;;;;;;;;;;;;;
2023/03/23 22:12:05;;;;;;;;;;;;;;;;;;;;;
2023/03/23 22:29:22;;;;;;;;;;;;;;;;;;;;;
2023/03/23 22:35:37;;;;;;;;;;;;;;;;;;;;;
2023/03/23 22:38:24;;;;;;;8.73;2.47;;;13.10;99.90;;;;;;4892982;29;21033;-84
2023/03/23 22:45:09;;;;;;;;;;;;;;;;;;;;;
2023/03/23 23:19:40;;;;;;;2.13;1.80;;;12.80;1.00;;;;;;4869488;29;20444;-83
2023/03/23 23:22:26;;;;;;;;;;;;;;;;;;;;;
2023/03/23 23:29:05;;;;;;;5.33;2.27;;;12.80;1.00;;;;;;4898996;29;20451;-83
2023/03/23 23:35:29;;;;;;;3.93;2.10;;;12.80;1.00;;;;;;4888095;29;20826;-84
2023/03/23 23:39:39;;;;;;;;;;;;;;;;;;;;;
2023/03/23 23:41:50;;;;;;;3.17;2.07;;;12.90;1.00;;;;;;4900964;29;20643;-82
2023/03/23 23:45:00;;;;;;;;;;;;;;;;;;;;;
2023/03/23 23:51:15;;;;;;;;;;;;;;;;;;;;;
2023/03/23 23:54:31;;;;;;;;;;;;;;;;;;;;;
